Terminal Aerodrome Forecast
Issued by NWS Cleveland, OH

Home | Current Version | Previous Version | Graphics & Text | Print | Product List | Glossary On
Versions: 1 2 3 4 5 6 7 8 9 10 11 12 13 14 15 16 17 18 19
000
FTUS41 KCLE 231700
TAFCAK
TAF
KCAK 231740Z 2318/2418 14010KT P6SM BKN008 OVC020
      TEMPO 2320/2322 2SM -SHRA BR BKN015 OVC035
     FM232200 13007KT P6SM BKN020
     FM240300 15007KT 4SM -SHRA BR OVC007
     FM240700 14008KT 3SM -SHRA BR OVC004
     FM241600 15014KT 6SM BR OVC007=

USA.gov is the U.S. government's official web portal to all federal, state and local government web resources and services.